Tiempo atmosférico en la estación meteorológica de Degaña, Asturias (1305 m.)

Fecha
DESCASC
Temp. máxima en grados centígrados (hora)
DESCASC
Temp. mínima en grados centígrados (hora)
DESCASC
Temp. media en grados centígrados
DESCASC
Racha de viento máxima en m/sg (hora)
DESCASC
Velocidad máxima media en intervalos de 10 minutos(hora)
DESCASC
Precipitaciones diarias en mm
DESCASC
Precipitaciones de 00:00 a 06:00 en mm
DESCASC
Precipitaciones de 06:00 a 12:00 en mm
DESCASC
Precipitaciones de 12:00 a 18:00 en mm
DESCASC
Precipitaciones de 18:00 a 24:00 en mm
DESCASC
24-09-2017 22.4 (16:30) 8.5 (07:00) 15.4 6.94 (13:10) 2.78 (13:10) 10 0 0 0 10
23-09-2017 21.7 (16:10) 10 (00:00) 15.9 7.78 (08:50) 5.28 (08:50) 0 0 0 0 0
22-09-2017 16.2 (17:00) 6.4 (07:10) 11.3 6.67 (07:20) 3.89 (03:50) 0.4 0.2 0 0.2 0
21-09-2017 17 (14:50) 7.2 (00:00) 12.1 6.94 (17:10) 3.06 (17:30) 0.2 0 0 0 0.2
20-09-2017 21.4 (16:20) 6.7 (00:00) 14 5.28 (13:20) 2.22 (13:20) 0 0 0 0 0
19-09-2017 17.8 (17:10) 3.7 (00:00) 10.7 4.44 (17:00) 1.67 (08:10) 0.2 0 0.2 0 0
18-09-2017 10.8 (18:50) 6.3 (00:00) 8.6 6.11 (19:10) 2.5 (19:10) 5.2 2 2 1.2 0
17-09-2017 12.6 (16:00) 3.4 (00:00) 8 6.11 (14:50) 2.78 (19:00) 0.6 0 0 0 0.6
16-09-2017 10.1 (15:40) 1.8 (00:00) 6 5.28 (13:00) 2.5 (13:00) 0.2 0 0 0.2 0
15-09-2017 8.4 (15:10) 2.5 (00:00) 5.4 9.44 (03:50) 3.33 (17:40) 1 0.2 0.6 0.2 0
14-09-2017 12.4 (00:00) 6 (00:00) 9.2 8.06 (09:10) 4.17 (09:30) 2.4 0.2 2.2 0 0
13-09-2017 21.7 (15:20) 7.7 (00:00) 14.7 5.56 (15:30) 2.22 (15:20) 0 0 0 0 0
12-09-2017 13.5 (17:40) 8.2 (00:00) 10.8 4.17 (13:40) 1.67 (13:40) 5.2 0.4 3.4 1.4 0
11-09-2017 15.6 (16:00) 9.1 (00:00) 12.4 8.33 (21:40) 3.06 (21:40) 2.6 1.6 1 0 0
10-09-2017 13.7 (14:00) 5.5 (00:00) 9.6 8.61 (00:20) 3.33 (00:20) 2 1 0 0 1
09-09-2017 11.9 (00:00) 6.5 (00:00) 9.2 9.72 (10:10) 4.44 (16:10) 9.6 5.2 0.8 2 1.6
08-09-2017 22.4 (15:40) 7.8 (00:00) 15.1 5.83 (14:50) 2.5 (14:50) 0 0 0 0 0
07-09-2017 23 (15:20) 6.7 (00:00) 14.8 5.83 (16:30) 2.22 (06:50) 0 0 0 0 0
06-09-2017 19.7 (15:30) 7.4 (00:00) 13.6 6.39 (09:10) 4.17 (09:10) 0 0 0 0 0
05-09-2017 23.8 (14:50) 9.9 (00:00) 16.8 6.94 (16:50) 3.61 (17:00) 0.2 0 0.2 0 0
04-09-2017 21.1 (16:30) 11.8 (00:00) 16.5 5.83 (00:20) 2.22 (16:50) 1.8 1.4 0.4 0 0
03-09-2017 22.6 (16:50) 9.5 (00:00) 16.1 7.5 (17:30) 2.78 (18:50) 1.2 0 0 0 1.2
02-09-2017 23.5 (16:40) 2.9 (00:00) 13.2 7.78 (04:50) 5.83 (03:20) 0 0 0 0 0
01-09-2017 14.6 (15:40) 7.5 (00:00) 11.1 8.33 (12:30) 5 (19:00) 0 0 0 0 0
31-08-2017 16.8 (14:10) 5.3 (00:00) 11 8.33 (18:30) 4.17 (15:20) 0.6 0.4 0.2 0 0
30-08-2017 13.6 (10:10) 9.3 (00:00) 11.5 7.22 (03:10) 4.72 (03:10) 5.2 0 0 5 0.2
29-08-2017 19.7 (15:30) 11.7 (00:00) 15.7 7.5 (19:20) 4.17 (09:50) 2.6 0 0 0 2.6
28-08-2017 22.2 (15:50) 11.7 (00:00) 17 9.72 (09:40) 5.83 (04:30) 3.4 0 0 0 3.4
27-08-2017 20.9 (15:20) 11.5 (00:00) 16.2 9.72 (11:30) 6.39 (06:40) 4.8 0.2 0 0.2 4.4
26-08-2017 23.2 (15:40) 11.8 (00:00) 17.5 8.61 (16:20) 4.17 (23:00) 0.8 0 0 0 0.8

Gráficas

Temp. máximas Temp. mínimas Temp. medias Precipitaciones Rachas de viento máximas Velocidades máximas media en intervalos de 10 minutos

Datos horarios

Fecha y hora oficial Temperatura (ºC) Velocidad del viento (km/h) Dirección del viento Racha (km/h) Dirección de racha Precipitación (mm) Presión (hPa) Tendencia (hPa) Humedad (%)
2017-09-24 23:00:00 11.3 2 Noroeste 8 Noroeste 0 -- -- 98
2017-09-24 22:00:00 11.5 0 Calma 13 Este 4.2 -- -- 97
2017-09-24 21:00:00 12.3 5 Sudoeste 18 Oeste 5.8 -- -- 93
2017-09-24 20:00:00 15.9 2 Norte 9 Noroeste 0 -- -- 55
2017-09-24 19:00:00 18.2 3 Nordeste 10 Este 0 -- -- 41
2017-09-24 18:00:00 20.3 6 Noroeste 13 Este 0 -- -- 41
2017-09-24 17:00:00 21.1 3 Este 18 Sur 0 -- -- 32
2017-09-24 16:00:00 21.4 4 Nordeste 19 Noroeste 0 -- -- 28
2017-09-24 15:00:00 21.4 5 Sur 19 Sudoeste 0 -- -- 25
2017-09-24 14:00:00 21.5 8 Sudeste 25 Sudeste 0 -- -- 24
2017-09-24 13:00:00 20.3 9 Sudeste 24 Sudeste 0 -- -- 23
2017-09-24 12:00:00 19.2 5 Sudeste 15 Sudeste 0 -- -- 22
2017-09-24 11:00:00 17.4 3 Sudoeste 9 Sur 0 -- -- 35
2017-09-24 10:00:00 12.9 3 Noroeste 6 Noroeste 0 -- -- 54
2017-09-24 09:00:00 10 4 Norte 10 Norte 0 -- -- 47
2017-09-24 08:00:00 9 5 Noroeste 10 Noroeste 0 -- -- 47
2017-09-24 07:00:00 8.5 6 Noroeste 9 Noroeste 0 -- -- 38
2017-09-24 06:00:00 8.8 3 Noroeste 8 Norte 0 -- -- 45
2017-09-24 05:00:00 10 3 Norte 15 Nordeste 0 -- -- 48
2017-09-24 04:00:00 10.1 6 Norte 13 Nordeste 0 -- -- 52
2017-09-24 03:00:00 9.7 4 Norte 7 Norte 0 -- -- 66
2017-09-24 02:00:00 10.1 2 Nordeste 13 Noroeste 0 -- -- 69
2017-09-24 01:00:00 10.7 4 Noroeste 8 Noroeste 0 -- -- 74
2017-09-24 00:00:00 10.5 3 Noroeste 8 Noroeste 0 -- -- 76
2017-09-23 23:00:00 11 3 Noroeste 6 Noroeste 0 -- -- 81
2017-09-23 22:00:00 11.8 5 Noroeste 8 Noroeste 0 -- -- 80
2017-09-23 21:00:00 13.9 3 Noroeste 9 Oeste 0 -- -- 68
2017-09-23 20:00:00 16 3 Noroeste 5 Oeste 0 -- -- 63
2017-09-23 19:00:00 18.7 0 Calma 5 Noroeste 0 -- -- 49
2017-09-23 18:00:00 19.8 3 Sudoeste 14 Nordeste 0 -- -- 40
2017-09-23 17:00:00 21.3 3 Sudeste 14 Sudeste 0 -- -- 38
2017-09-23 16:00:00 21.5 6 Nordeste 24 Sudeste 0 -- -- 31
2017-09-23 15:00:00 20.8 5 Sudeste 20 Este 0 -- -- 39
2017-09-23 14:00:00 20.5 6 Norte 15 Sudeste 0 -- -- 41
2017-09-23 13:00:00 20.1 5 Nordeste 15 Norte 0 -- -- 44
2017-09-23 12:00:00 19.2 4 Sudeste 17 Sur 0 -- -- 48
2017-09-23 11:00:00 17 3 Nordeste 16 Este 0 -- -- 59
2017-09-23 10:00:00 14.4 5 Este 26 Nordeste 0 -- -- 69
2017-09-23 09:00:00 11.4 17 Nordeste 28 Nordeste 0 -- -- 83
2017-09-23 08:00:00 11.3 15 Nordeste 23 Nordeste 0 -- -- 82
2017-09-23 07:00:00 11.6 13 Nordeste 23 Nordeste 0 -- -- 81
2017-09-23 06:00:00 11 10 Nordeste 18 Nordeste 0 -- -- 84
2017-09-23 05:00:00 11.6 11 Nordeste 25 Este 0 -- -- 82
2017-09-23 04:00:00 12.1 13 Nordeste 24 Este 0 -- -- 80
2017-09-23 03:00:00 12.2 10 Nordeste 20 Nordeste 0 -- -- 79
2017-09-23 02:00:00 12.2 12 Nordeste 20 Este 0 -- -- 76
2017-09-23 01:00:00 10.5 3 Sudoeste 10 Este 0 -- -- 83
2017-09-23 00:00:00 10 3 Norte 8 Oeste 0 -- -- 86
2017-09-22 23:00:00 9.6 2 Noroeste 8 Noroeste 0 -- -- 95
2017-09-22 22:00:00 10.6 2 Nordeste 4 Este 0 -- -- 97
2017-09-22 21:00:00 10.9 3 Noroeste 5 Noroeste 0 -- -- 95
2017-09-22 20:00:00 11.7 0 Calma 6 Sur 0 -- -- 91
2017-09-22 19:00:00 13.1 4 Noroeste 9 Oeste 0 -- -- 83
2017-09-22 18:00:00 15.4 3 Noroeste 10 Norte 0 -- -- 73
2017-09-22 17:00:00 16.2 4 Oeste 16 Sudoeste 0.2 -- -- 73
2017-09-22 16:00:00 15.5 4 Sur 13 Sur 0 -- -- 74
2017-09-22 15:00:00 14.7 5 Oeste 15 Noroeste 0 -- -- 77
2017-09-22 14:00:00 13.5 4 Oeste 14 Noroeste 0 -- -- 83
2017-09-22 13:00:00 14.1 5 Noroeste 13 Sudoeste 0 -- -- 81
2017-09-22 12:00:00 12.6 2 Noroeste 10 Sudoeste 0 -- -- 89
2017-09-22 11:00:00 13 5 Sur 12 Sur 0 -- -- 88
2017-09-22 10:00:00 9.2 0 Calma 10 Sudoeste 0 -- -- 100
2017-09-22 09:00:00 6.8 0 Calma 5 Oeste 0 -- -- 100
2017-09-22 08:00:00 7 3 Oeste 24 Nordeste 0 -- -- 98
2017-09-22 07:00:00 6.7 2 Oeste 10 Este 0 -- -- 99
2017-09-22 06:00:00 7.5 2 Nordeste 3 Nordeste 0 -- -- 100
2017-09-22 05:00:00 7.7 0 Calma 21 Este 0 -- -- 98
2017-09-22 04:00:00 9.4 14 Este 23 Este 0.2 -- -- 91
2017-09-22 03:00:00 7.7 0 Calma 3 Sur 0 -- -- 100
2017-09-22 02:00:00 7.9 0 Calma 5 Este 0 -- -- 100
2017-09-22 01:00:00 8.1 0 Calma 2 Sur 0 -- -- 100
2017-09-22 00:00:00 8.2 0 Calma 5 Norte 0 -- -- 99
2017-09-21 23:00:00 8.8 0 Calma 4 Sur 0.2 -- -- 99
2017-09-21 22:00:00 9.3 0 Calma 13 Sudeste 0 -- -- 98
2017-09-21 21:00:00 10 3 Sudoeste 20 Noroeste 0 -- -- 97
2017-09-21 20:00:00 10.7 8 Norte 18 Norte 0 -- -- 92
2017-09-21 19:00:00 11.5 6 Nordeste 16 Nordeste 0 -- -- 93
2017-09-21 18:00:00 12.5 6 Sudeste 25 Noroeste 0 -- -- 90
2017-09-21 17:00:00 13.7 8 Norte 18 Sudoeste 0 -- -- 79
2017-09-21 16:00:00 15.5 6 Este 20 Noroeste 0 -- -- 74
2017-09-21 15:00:00 16.2 6 Noroeste 17 Noroeste 0 -- -- 70
2017-09-21 14:00:00 15.7 6 Sur 14 Sur 0 -- -- 72
2017-09-21 13:00:00 14.9 3 Nordeste 9 Sur 0 -- -- 74
2017-09-21 12:00:00 13.6 3 Noroeste 7 Noroeste 0 -- -- 74
2017-09-21 11:00:00 12.6 3 Sur 5 Sur 0 -- -- 80
2017-09-21 10:00:00 10.5 0 Calma 5 Norte 0 -- -- 92
2017-09-21 09:00:00 8.3 3 Norte 6 Noroeste 0 -- -- 95
2017-09-21 08:00:00 7.2 4 Noroeste 6 Noroeste 0 -- -- 95
2017-09-21 07:00:00 7.4 5 Noroeste 6 Noroeste 0 -- -- 93
2017-09-21 06:00:00 7.9 4 Noroeste 10 Oeste 0 -- -- 90
2017-09-21 05:00:00 8.4 5 Oeste 9 Noroeste 0 -- -- 90
2017-09-21 04:00:00 8.2 5 Noroeste 8 Noroeste 0 -- -- 88
2017-09-21 03:00:00 8.2 2 Noroeste 6 Noroeste 0 -- -- 94
2017-09-21 02:00:00 8.9 4 Noroeste 6 Noroeste 0 -- -- 93
2017-09-21 01:00:00 9.6 3 Noroeste 8 Noroeste 0 -- -- 84
2017-09-21 00:00:00 10 6 Noroeste 7 Noroeste 0 -- -- 84
2017-09-20 23:00:00 10.7 5 Noroeste 6 Noroeste 0 -- -- 80
2017-09-20 22:00:00 11.1 5 Noroeste 8 Noroeste 0 -- -- 77
2017-09-20 21:00:00 12.6 4 Noroeste 11 Noroeste 0 -- -- 72
2017-09-20 20:00:00 16.1 4 Noroeste 9 Oeste 0 -- -- 67
2017-09-20 19:00:00 18.7 4 Nordeste 10 Sur 0 -- -- 57
2017-09-20 18:00:00 20.7 5 Sudeste 14 Sur 0 -- -- 52
2017-09-20 17:00:00 21 4 Noroeste 16 Sur 0 -- -- 35
2017-09-20 16:00:00 21.3 6 Sudeste 16 Sur 0 -- -- 41
2017-09-20 15:00:00 21 5 Sudeste 16 Sudeste 0 -- -- 41
2017-09-20 14:00:00 19.9 6 Sur 19 Sur 0 -- -- 45
2017-09-20 13:00:00 19.3 6 Sudeste 16 Sur 0 -- -- 47
2017-09-20 12:00:00 18.1 6 Sur 13 Sur 0 -- -- 50
2017-09-20 11:00:00 16.3 4 Sur 6 Sur 0 -- -- 58
2017-09-20 10:00:00 12.2 2 Sur 6 Este 0 -- -- 76
2017-09-20 09:00:00 7.9 5 Noroeste 7 Noroeste 0 -- -- 87
2017-09-20 08:00:00 6.8 4 Noroeste 8 Noroeste 0 -- -- 90
2017-09-20 07:00:00 7.4 4 Noroeste 12 Nordeste 0 -- -- 89
2017-09-20 06:00:00 7.6 5 Noroeste 10 Noroeste 0 -- -- 89
2017-09-20 05:00:00 7.8 3 Noroeste 8 Nordeste 0 -- -- 91
2017-09-20 04:00:00 8.1 5 Norte 9 Nordeste 0 -- -- 91
2017-09-20 03:00:00 7.7 4 Noroeste 9 Noroeste 0 -- -- 91
2017-09-20 02:00:00 7.9 4 Noroeste 8 Noroeste 0 -- -- 92
2017-09-20 01:00:00 8.4 6 Noroeste 9 Noroeste 0 -- -- 90
2017-09-20 00:00:00 8.5 5 Noroeste 8 Noroeste 0 -- -- 90
2017-09-19 23:00:00 8.1 3 Noroeste 6 Noroeste 0 -- -- 94
2017-09-19 22:00:00 8.6 5 Noroeste 6 Oeste 0 -- -- 92
2017-09-19 21:00:00 9.9 5 Noroeste 6 Noroeste 0 -- -- 87
2017-09-19 20:00:00 13.1 3 Noroeste 6 Noroeste 0 -- -- 78
2017-09-19 19:00:00 15.6 4 Nordeste 11 Oeste 0 -- -- 63
2017-09-19 18:00:00 17.4 3 Este 12 Sur 0 -- -- 56
2017-09-19 17:00:00 17.7 4 Sudeste 16 Sudeste 0 -- -- 51
2017-09-19 16:00:00 17 3 Noroeste 12 Sudeste 0 -- -- 46
2017-09-19 15:00:00 16.2 4 Oeste 15 Sudeste 0 -- -- 50
2017-09-19 14:00:00 15 4 Noroeste 10 Sudeste 0 -- -- 63
2017-09-19 13:00:00 13.3 5 Noroeste 11 Noroeste 0 -- -- 66
2017-09-19 12:00:00 12.5 3 Sur 8 Sur 0 -- -- 77
2017-09-19 11:00:00 11.3 3 Sudeste 5 Sur 0 -- -- 87
2017-09-19 10:00:00 8.3 0 Calma 4 Noroeste 0 -- -- 100
2017-09-19 09:00:00 4.6 3 Noroeste 7 Noroeste 0 -- -- 100
2017-09-19 08:00:00 3.8 5 Noroeste 7 Noroeste 0 -- -- 100
2017-09-19 07:00:00 4 5 Noroeste 6 Noroeste 0.2 -- -- 100
2017-09-19 06:00:00 4.4 3 Noroeste 5 Noroeste 0 -- -- 100
2017-09-19 05:00:00 5.6 3 Noroeste 6 Noroeste 0 -- -- 100
2017-09-19 04:00:00 6.1 3 Noroeste 8 Noroeste 0 -- -- 100
2017-09-19 03:00:00 6.3 4 Noroeste 6 Noroeste 0 -- -- 100
2017-09-19 02:00:00 7.9 2 Noroeste 4 Noroeste 0 -- -- 100
2017-09-19 01:00:00 8.2 0 Calma 5 Oeste 0 -- -- 100
2017-09-19 00:00:00 8 3 Oeste 7 Noroeste 0 -- -- 100
2017-09-18 23:00:00 7.1 5 Noroeste 9 Sudoeste 0 -- -- 100
2017-09-18 22:00:00 8.1 4 Noroeste 10 Noroeste 0 -- -- 99
2017-09-18 21:00:00 9.1 3 Noroeste 6 Noroeste 0 -- -- 99
2017-09-18 20:00:00 9.8 2 Oeste 22 Noroeste 0 -- -- 96
2017-09-18 19:00:00 10.7 4 Oeste 16 Sudoeste 0 -- -- 97
2017-09-18 18:00:00 10.5 4 Oeste 12 Noroeste 0.6 -- -- 100
2017-09-18 17:00:00 10 4 Noroeste 10 Noroeste 0.4 -- -- 100
2017-09-18 16:00:00 9.6 0 Calma 6 Noroeste 0 -- -- 100
2017-09-18 15:00:00 9.1 0 Calma 9 Noroeste 0.2 -- -- 100
2017-09-18 14:00:00 8.9 3 Norte 13 Noroeste 0 -- -- 100
2017-09-18 13:00:00 8.6 6 Noroeste 14 Noroeste 0 -- -- 100
2017-09-18 12:00:00 8.5 4 Norte 12 Oeste 1.4 -- -- 100
2017-09-18 11:00:00 8.1 3 Noroeste 8 Noroeste 0.2 -- -- 100
2017-09-18 10:00:00 7.7 0 Calma 7 Sudoeste 0 -- -- 100
2017-09-18 09:00:00 7.4 4 Noroeste 12 Noroeste 0 -- -- 100
2017-09-18 08:00:00 7.1 4 Noroeste 9 Noroeste 0 -- -- 100
2017-09-18 07:00:00 7.4 4 Noroeste 14 Noroeste 0.4 -- -- 99
2017-09-18 06:00:00 7.6 3 Noroeste 8 Oeste 0.4 -- -- 99
2017-09-18 05:00:00 6.9 0 Calma 6 Sur 0.4 -- -- 99
2017-09-18 04:00:00 6.7 0 Calma 5 Noroeste 0 -- -- 99
2017-09-18 03:00:00 6.4 0 Calma 5 Norte 0.2 -- -- 99
2017-09-18 02:00:00 6.5 3 Noroeste 5 Noroeste 0.2 -- -- 98
2017-09-18 01:00:00 6.9 0 Calma 5 Noroeste 0.8 -- -- 97
2017-09-18 00:00:00 7.3 3 Norte 7 Norte 0.6 -- -- 94
2017-09-17 23:00:00 7.6 4 Noroeste 8 Norte 0 -- -- 91
2017-09-17 22:00:00 7.7 3 Noroeste 6 Oeste 0 -- -- 86
2017-09-17 21:00:00 8.3 3 Noroeste 8 Noroeste 0 -- -- 83
2017-09-17 20:00:00 9.2 0 Calma 17 Noroeste 0 -- -- 78
2017-09-17 19:00:00 10 10 Noroeste 18 Noroeste 0 -- -- 71
2017-09-17 18:00:00 11.1 4 Nordeste 12 Este 0 -- -- 69
2017-09-17 17:00:00 11.6 4 Este 17 Sudoeste 0 -- -- 66
2017-09-17 16:00:00 12.6 6 Este 17 Sur 0 -- -- 66
2017-09-17 15:00:00 12.3 5 Este 22 Sur 0 -- -- 72
2017-09-17 14:00:00 9.5 5 Nordeste 11 Sudeste 0 -- -- 76
2017-09-17 13:00:00 9.1 4 Nordeste 15 Sur 0 -- -- 81
2017-09-17 12:00:00 7.2 3 Nordeste 9 Sudeste 0 -- -- 89
2017-09-17 11:00:00 5.6 3 Norte 6 Noroeste 0 -- -- 96
2017-09-17 10:00:00 5.2 2 Noroeste 5 Oeste 0 -- -- 93
2017-09-17 09:00:00 4.9 3 Noroeste 6 Noroeste 0 -- -- 91
2017-09-17 08:00:00 4.3 0 Calma 4 Noroeste 0 -- -- 95
2017-09-17 07:00:00 4.4 2 Noroeste 5 Noroeste 0 -- -- 95
2017-09-17 06:00:00 3.9 2 Oeste 5 Noroeste 0 -- -- 98
2017-09-17 05:00:00 3.4 2 Noroeste 5 Noroeste 0 -- -- 97
2017-09-17 04:00:00 4 3 Noroeste 4 Oeste 0 -- -- 97
2017-09-17 03:00:00 4.5 0 Calma 3 Oeste 0 -- -- 98
2017-09-17 02:00:00 4.9 0 Calma 4 Noroeste 0 -- -- 96
2017-09-17 01:00:00 4.7 0 Calma 4 Noroeste 0 -- -- 97
2017-09-17 00:00:00 3.5 2 Noroeste 6 Oeste 0 -- -- 98
2017-09-16 23:00:00 4.1 3 Oeste 6 Oeste 0 -- -- 95
2017-09-16 22:00:00 4.7 2 Oeste 8 Noroeste 0 -- -- 95
2017-09-16 21:00:00 5.3 3 Oeste 9 Sudoeste 0 -- -- 90
2017-09-16 20:00:00 6.4 3 Oeste 6 Noroeste 0 -- -- 90
2017-09-16 19:00:00 6.8 2 Sudeste 10 Sur 0 -- -- 90
2017-09-16 18:00:00 7 4 Oeste 19 Noroeste 0 -- -- 88
2017-09-16 17:00:00 7.5 3 Noroeste 12 Noroeste 0.2 -- -- 91
2017-09-16 16:00:00 9.7 3 Sur 12 Sudeste 0 -- -- 76
2017-09-16 15:00:00 8 4 Sudeste 13 Sudoeste 0 -- -- 80
2017-09-16 14:00:00 7 5 Oeste 15 Noroeste 0 -- -- 82
2017-09-16 13:00:00 6.6 9 Noroeste 19 Noroeste 0 -- -- 77
2017-09-16 12:00:00 6.2 2 Sur 13 Oeste 0 -- -- 89
2017-09-16 11:00:00 5 2 Este 9 Sudeste 0 -- -- 94
2017-09-16 10:00:00 4.8 2 Norte 8 Sudeste 0 -- -- 96
2017-09-16 09:00:00 3.2 0 Calma 7 Sur 0 -- -- 97
2017-09-16 08:00:00 3.4 0 Calma 5 Oeste 0 -- -- 99
2017-09-16 07:00:00 3.5 0 Calma 4 Oeste 0 -- -- 98
2017-09-16 06:00:00 3 3 Noroeste 5 Noroeste 0 -- -- 99
2017-09-16 05:00:00 1.9 2 Noroeste 6 Noroeste 0 -- -- 97
2017-09-16 04:00:00 2.6 0 Calma 7 Sudoeste 0 -- -- 96
2017-09-16 03:00:00 3 0 Calma 13 Este 0 -- -- 93
2017-09-16 02:00:00 3.5 2 Noroeste 8 Sur 0 -- -- 93
2017-09-16 01:00:00 3.6 3 Sudoeste 8 Sudoeste 0 -- -- 94
2017-09-16 00:00:00 2.5 2 Noroeste 10 Norte 0 -- -- 92
2017-09-15 23:00:00 4 5 Norte 15 Norte 0 -- -- 85
2017-09-15 22:00:00 4.2 0 Calma 13 Norte 0 -- -- 86
2017-09-15 21:00:00 4 4 Norte 17 Oeste 0 -- -- 83
2017-09-15 20:00:00 5.4 3 Este 19 Oeste 0 -- -- 86
2017-09-15 19:00:00 5.6 3 Oeste 17 Nordeste 0 -- -- 85
2017-09-15 18:00:00 6.4 11 Norte 24 Norte 0 -- -- 84
2017-09-15 17:00:00 8.1 5 Sudeste 28 Este 0 -- -- 78
2017-09-15 16:00:00 6.5 9 Oeste 28 Norte 0.2 -- -- 81
2017-09-15 15:00:00 7.9 5 Norte 27 Noroeste 0 -- -- 77
2017-09-15 14:00:00 7.2 5 Sur 17 Noroeste 0 -- -- 80
2017-09-15 13:00:00 7.2 6 Sur 16 Oeste 0 -- -- 86
2017-09-15 12:00:00 7.9 5 Oeste 26 Oeste 0 -- -- 73
2017-09-15 11:00:00 6.3 7 Sudeste 21 Sur 0 -- -- 85
2017-09-15 10:00:00 6 6 Sudoeste 15 Sur 0 -- -- 84
2017-09-15 09:00:00 5 8 Noroeste 24 Noroeste 0 -- -- 87
2017-09-15 08:00:00 4.6 8 Oeste 20 Oeste 0.2 -- -- 93
2017-09-15 07:00:00 4.8 3 Este 12 Sudeste 0.4 -- -- 97
2017-09-15 06:00:00 4.7 3 Sudeste 12 Sudeste 0.2 -- -- 96
2017-09-15 05:00:00 4.7 5 Sudeste 16 Sur 0 -- -- 95
2017-09-15 04:00:00 5 5 Sur 34 Este 0 -- -- 86
2017-09-15 03:00:00 4.7 3 Sudoeste 12 Sudeste 0 -- -- 83
2017-09-15 02:00:00 4.3 4 Sur 25 Este 0 -- -- 86
2017-09-15 01:00:00 5.1 5 Este 21 Este 0 -- -- 83
2017-09-15 00:00:00 6 4 Sudeste 14 Sudeste 0 -- -- 84
2017-09-14 23:00:00 6.7 6 Sur 18 Sur 0 -- -- 85
2017-09-14 22:00:00 7.2 3 Sudoeste 23 Norte 0 -- -- 81
2017-09-14 21:00:00 7.7 9 Norte 23 Nordeste 0 -- -- 81
2017-09-14 20:00:00 8.8 10 Norte 24 Norte 0 -- -- 79
2017-09-14 19:00:00 10.1 10 Noroeste 27 Noroeste 0 -- -- 73
2017-09-14 18:00:00 11.7 8 Noroeste 26 Noroeste 0 -- -- 67
2017-09-14 17:00:00 11.7 9 Noroeste 26 Noroeste 0 -- -- 70
2017-09-14 16:00:00 11.3 8 Nordeste 23 Norte 0 -- -- 71
2017-09-14 15:00:00 10 10 Norte 26 Este 0 -- -- 77
2017-09-14 14:00:00 9.3 5 Oeste 20 Norte 0 -- -- 80
2017-09-14 13:00:00 9 6 Sudeste 14 Sudoeste 0 -- -- 93
2017-09-14 12:00:00 8.2 5 Nordeste 17 Norte 0 -- -- 95
2017-09-14 11:00:00 8.2 0 Calma 23 Noroeste 0 -- -- 95
2017-09-14 10:00:00 7.8 8 Norte 29 Norte 0 -- -- 95
2017-09-14 09:00:00 9.2 6 Sur 23 Nordeste 0.6 -- -- 97
2017-09-14 08:00:00 9.6 0 Calma 5 Sur 0.6 -- -- 99
2017-09-14 07:00:00 9.8 0 Calma 8 Noroeste 1 -- -- 98
2017-09-14 06:00:00 10.2 3 Noroeste 7 Norte 0.2 -- -- 95
2017-09-14 05:00:00 10 3 Noroeste 8 Noroeste 0 -- -- 94
2017-09-14 04:00:00 10.5 0 Calma 7 Noroeste 0 -- -- 96
2017-09-14 03:00:00 11 2 Norte 11 Noroeste 0 -- -- 96
2017-09-14 02:00:00 10.9 4 Noroeste 15 Oeste 0 -- -- 93
2017-09-14 01:00:00 10.8 4 Noroeste 7 Noroeste 0 -- -- 95
2017-09-14 00:00:00 12.4 4 Noroeste 9 Noroeste 0 -- -- 95
2017-09-13 23:00:00 12.5 3 Noroeste 9 Oeste 0 -- -- 93
2017-09-13 22:00:00 13.6 3 Norte 8 Noroeste 0 -- -- 93
2017-09-13 21:00:00 14.1 3 Norte 9 Sudoeste 0 -- -- 87
2017-09-13 20:00:00 16.5 4 Oeste 12 Noroeste 0 -- -- 73
2017-09-13 19:00:00 18.7 4 Sudoeste 15 Oeste 0 -- -- 61
2017-09-13 18:00:00 20.3 5 Este 13 Sudeste 0 -- -- 64
2017-09-13 17:00:00 19.1 4 Norte 12 Nordeste 0 -- -- 70
2017-09-13 16:00:00 20 3 Nordeste 20 Sur 0 -- -- 68
2017-09-13 15:00:00 21.6 5 Sudeste 19 Sur 0 -- -- 66
2017-09-13 14:00:00 19.1 4 Norte 13 Noroeste 0 -- -- 68
2017-09-13 13:00:00 18.2 4 Oeste 14 Noroeste 0 -- -- 67
2017-09-13 12:00:00 16.5 4 Noroeste 12 Noroeste 0 -- -- 71
2017-09-13 11:00:00 15.5 2 Sudeste 9 Sur 0 -- -- 76
2017-09-13 10:00:00 12.8 2 Sur 5 Sur 0 -- -- 99
2017-09-13 09:00:00 9.4 2 Noroeste 6 Noroeste 0 -- -- 100
2017-09-13 08:00:00 8 4 Noroeste 8 Oeste 0 -- -- 100
2017-09-13 07:00:00 7.8 5 Noroeste 9 Noroeste 0 -- -- 100
2017-09-13 06:00:00 8.2 5 Noroeste 8 Noroeste 0 -- -- 100
2017-09-13 05:00:00 8.6 3 Norte 5 Noroeste 0 -- -- 100
2017-09-13 04:00:00 8.6 3 Oeste 7 Noroeste 0 -- -- 100
2017-09-13 03:00:00 9 3 Noroeste 8 Oeste 0 -- -- 100
2017-09-13 02:00:00 9.9 2 Noroeste 5 Noroeste 0 -- -- 99
2017-09-13 01:00:00 10.7 3 Noroeste 8 Noroeste 0 -- -- 99
2017-09-13 00:00:00 11 6 Noroeste 8 Noroeste 0 -- -- 98
2017-09-12 23:00:00 12 2 Noroeste 6 Norte 0 -- -- 97
2017-09-12 22:00:00 12.1 0 Calma 6 Oeste 0 -- -- 97
2017-09-12 21:00:00 12.3 3 Noroeste 7 Noroeste 0 -- -- 96
2017-09-12 20:00:00 12.6 0 Calma 7 Oeste 0 -- -- 95
2017-09-12 19:00:00 12.9 4 Noroeste 10 Sur 0 -- -- 95
2017-09-12 18:00:00 13.3 3 Norte 9 Noroeste 0 -- -- 91
2017-09-12 17:00:00 13.2 3 Nordeste 8 Oeste 0 -- -- 95
2017-09-12 16:00:00 12.9 3 Nordeste 8 Nordeste 0 -- -- 98
2017-09-12 15:00:00 12.7 3 Este 12 Noroeste 0.2 -- -- 100
2017-09-12 14:00:00 11.3 4 Nordeste 15 Noroeste 0.4 -- -- 100
2017-09-12 13:00:00 11.1 3 Este 10 Noroeste 0.8 -- -- 100
2017-09-12 12:00:00 10.3 3 Noroeste 6 Norte 0.2 -- -- 100
2017-09-12 11:00:00 9.6 2 Norte 6 Este 0.4 -- -- 100
2017-09-12 10:00:00 9.2 0 Calma 5 Norte 1.4 -- -- 100
2017-09-12 09:00:00 8.8 0 Calma 6 Noroeste 0.8 -- -- 100
2017-09-12 08:00:00 8.5 0 Calma 6 Noroeste 0.4 -- -- 100
2017-09-12 07:00:00 8.3 3 Noroeste 6 Noroeste 0.2 -- -- 100
2017-09-12 06:00:00 8.3 0 Calma 8 Sudeste 0.2 -- -- 100
2017-09-12 05:00:00 8.2 3 Oeste 8 Noroeste 0 -- -- 100
2017-09-12 04:00:00 8.4 2 Nordeste 6 Sudoeste 0 -- -- 100
2017-09-12 03:00:00 8.4 0 Calma 9 Noroeste 0 -- -- 99
2017-09-12 02:00:00 8.4 3 Noroeste 9 Sur 0.2 -- -- 99
2017-09-12 01:00:00 8.6 2 Nordeste 10 Noroeste 0 -- -- 97
2017-09-12 00:00:00 9.1 2 Sudoeste 17 Sur 0 -- -- 94
2017-09-11 23:00:00 10 5 Oeste 24 Noroeste 0 -- -- 88
2017-09-11 22:00:00 11.3 6 Noroeste 30 Oeste 0 -- -- 81
2017-09-11 21:00:00 12 5 Noroeste 15 Noroeste 0 -- -- 75
2017-09-11 20:00:00 12.9 5 Noroeste 15 Noroeste 0 -- -- 72
2017-09-11 19:00:00 14.3 7 Noroeste 17 Noroeste 0 -- -- 65
2017-09-11 18:00:00 15.4 5 Nordeste 18 Noroeste 0 -- -- 63
2017-09-11 17:00:00 14.1 4 Norte 21 Noroeste 0 -- -- 64
2017-09-11 16:00:00 15.6 5 Norte 25 Noroeste 0 -- -- 61
2017-09-11 15:00:00 14.5 7 Noroeste 19 Noroeste 0 -- -- 66
2017-09-11 14:00:00 12.6 4 Norte 14 Noroeste 0 -- -- 76
2017-09-11 13:00:00 12.4 5 Nordeste 18 Norte 0 -- -- 83
2017-09-11 12:00:00 11.5 8 Noroeste 18 Noroeste 0 -- -- 83
2017-09-11 11:00:00 12 5 Nordeste 18 Noroeste 0 -- -- 87
2017-09-11 10:00:00 11.7 5 Norte 23 Noroeste 0 -- -- 93
2017-09-11 09:00:00 11.2 4 Norte 21 Oeste 0 -- -- 94
2017-09-11 08:00:00 11.5 5 Noroeste 16 Oeste 0.4 -- -- 98
2017-09-11 07:00:00 11.8 6 Noroeste 20 Oeste 0.6 -- -- 99
2017-09-11 06:00:00 12 4 Norte 18 Oeste 0.6 -- -- 100
2017-09-11 05:00:00 12.1 5 Noroeste 19 Norte 0.4 -- -- 100
2017-09-11 04:00:00 12.2 4 Norte 16 Sudeste 0.2 -- -- 100
2017-09-11 03:00:00 12.2 3 Noroeste 11 Oeste 0 -- -- 100
2017-09-11 02:00:00 12.1 4 Noroeste 10 Noroeste 0.2 -- -- 100
2017-09-11 01:00:00 11.7 3 Noroeste 9 Noroeste 0.2 -- -- 100
2017-09-11 00:00:00 11.6 0 Calma 7 Noroeste 0.4 -- -- 100
2017-09-10 23:00:00 11.4 2 Norte 8 Oeste 0.4 -- -- 99
2017-09-10 22:00:00 11.1 2 Norte 8 Noroeste 0 -- -- 98
2017-09-10 21:00:00 10.9 3 Noroeste 7 Noroeste 0 -- -- 96
2017-09-10 20:00:00 10.8 3 Noroeste 6 Oeste 0.2 -- -- 92
2017-09-10 19:00:00 10.9 3 Noroeste 6 Norte 0 -- -- 88
2017-09-10 18:00:00 10.5 3 Noroeste 8 Noroeste 0 -- -- 88
2017-09-10 17:00:00 10.6 3 Noroeste 10 Sur 0 -- -- 84
2017-09-10 16:00:00 11.8 3 Este 11 Sur 0 -- -- 78
2017-09-10 15:00:00 12.9 3 Sudeste 10 Sudeste 0 -- -- 69
2017-09-10 14:00:00 13.7 6 Sudeste 18 Sur 0 -- -- 68
2017-09-10 13:00:00 11.4 4 Nordeste 14 Sur 0 -- -- 76
2017-09-10 12:00:00 10.7 4 Este 14 Sur 0 -- -- 86
2017-09-10 11:00:00 7.1 2 Nordeste 6 Este 0 -- -- 100
2017-09-10 10:00:00 6.4 2 Nordeste 7 Este 0 -- -- 100
2017-09-10 09:00:00 5.7 0 Calma 6 Sudeste 0 -- -- 99
2017-09-10 08:00:00 5.5 0 Calma 8 Sudoeste 0 -- -- 98
2017-09-10 07:00:00 5.6 3 Oeste 11 Oeste 0 -- -- 96
2017-09-10 06:00:00 5.7 4 Oeste 17 Oeste 0 -- -- 95
2017-09-10 05:00:00 6 4 Sudoeste 22 Oeste 0.4 -- -- 96
2017-09-10 04:00:00 6.2 6 Oeste 26 Noroeste 0.4 -- -- 95
2017-09-10 03:00:00 6 7 Sudoeste 31 Noroeste 0 -- -- 95
2017-09-10 02:00:00 6.1 7 Oeste 27 Oeste 0 -- -- 90
2017-09-10 01:00:00 6.1 8 Oeste 31 Oeste 0.2 -- -- 91
2017-09-10 00:00:00 6.5 10 Oeste 33 Oeste 0.4 -- -- 92
2017-09-09 23:00:00 6.5 6 Sudoeste 28 Oeste 0.4 -- -- 95
2017-09-09 22:00:00 7 9 Oeste 28 Oeste 0.4 -- -- 92
2017-09-09 21:00:00 7.3 8 Oeste 32 Oeste 0.2 -- -- 90
2017-09-09 20:00:00 7.8 9 Oeste 35 Oeste 0.2 -- -- 86
2017-09-09 19:00:00 8.2 6 Oeste 32 Oeste 0 -- -- 86
2017-09-09 18:00:00 8.5 6 Oeste 32 Oeste 0.6 -- -- 90
2017-09-09 17:00:00 8.9 7 Sudoeste 34 Oeste 1.4 -- -- 91
2017-09-09 16:00:00 9.8 9 Noroeste 32 Noroeste 0 -- -- 79
2017-09-09 15:00:00 8.8 12 Oeste 29 Noroeste 0 -- -- 82
2017-09-09 14:00:00 8.5 13 Oeste 31 Noroeste 0 -- -- 80
2017-09-09 13:00:00 8.3 3 Nordeste 15 Noroeste 0 -- -- 90
2017-09-09 12:00:00 7.5 3 Sudeste 24 Sur 0 -- -- 95
2017-09-09 11:00:00 6.9 7 Oeste 35 Oeste 0 -- -- 95
2017-09-09 10:00:00 6.8 10 Oeste 25 Oeste 0.8 -- -- 98
2017-09-09 09:00:00 7.1 4 Sudoeste 22 Noroeste 0 -- -- 97
2017-09-09 08:00:00 7.3 7 Noroeste 22 Oeste 0 -- -- 92
2017-09-09 07:00:00 7.8 4 Noroeste 19 Noroeste 0 -- -- 97
2017-09-09 06:00:00 8.2 6 Oeste 29 Noroeste 0.2 -- -- 93
2017-09-09 05:00:00 9.4 6 Oeste 22 Sudoeste 2.2 -- -- 99
2017-09-09 04:00:00 9.9 6 Oeste 33 Noroeste 0.8 -- -- 98
2017-09-09 03:00:00 10.3 3 Oeste 11 Noroeste 1.4 -- -- 98
2017-09-09 02:00:00 10.5 3 Norte 8 Noroeste 0.6 -- -- 97
2017-09-09 01:00:00 11 3 Norte 8 Nordeste 0 -- -- 93
2017-09-09 00:00:00 11.9 4 Norte 15 Noroeste 0 -- -- 88
2017-09-08 23:00:00 13 3 Noroeste 16 Noroeste 0 -- -- 84
2017-09-08 22:00:00 14.1 6 Noroeste 15 Noroeste 0 -- -- 77
2017-09-08 21:00:00 15.1 5 Noroeste 19 Noroeste 0 -- -- 69
2017-09-08 20:00:00 16.6 6 Noroeste 18 Noroeste 0 -- -- 58
2017-09-08 19:00:00 19.1 4 Norte 14 Oeste 0 -- -- 48
2017-09-08 18:00:00 21.2 6 Oeste 18 Oeste 0 -- -- 42
2017-09-08 17:00:00 22.1 5 Este 12 Este 0 -- -- 36
2017-09-08 16:00:00 22.1 4 Nordeste 15 Este 0 -- -- 41
2017-09-08 15:00:00 20.8 8 Noroeste 21 Noroeste 0 -- -- 40
2017-09-08 14:00:00 21.7 5 Sur 16 Sudeste 0 -- -- 34
2017-09-08 13:00:00 19.2 4 Noroeste 11 Sudeste 0 -- -- 35
2017-09-08 12:00:00 17.6 4 Noroeste 10 Noroeste 0 -- -- 29
2017-09-08 11:00:00 16.4 3 Sur 8 Sur 0 -- -- 32
2017-09-08 10:00:00 13.1 0 Calma 5 Noroeste 0 -- -- 46
2017-09-08 09:00:00 9.3 3 Oeste 8 Noroeste 0 -- -- 50
2017-09-08 08:00:00 8 6 Noroeste 8 Noroeste 0 -- -- 46
2017-09-08 07:00:00 7.9 5 Noroeste 8 Noroeste 0 -- -- 41
2017-09-08 06:00:00 7.8 6 Noroeste 8 Noroeste 0 -- -- 48
2017-09-08 05:00:00 7.8 4 Noroeste 8 Oeste 0 -- -- 48
2017-09-08 04:00:00 8.4 6 Noroeste 9 Noroeste 0 -- -- 55
2017-09-08 03:00:00 8 5 Noroeste 8 Noroeste 0 -- -- 69
2017-09-08 02:00:00 8.6 5 Noroeste 8 Noroeste 0 -- -- 81
2017-09-08 01:00:00 9 4 Noroeste 6 Noroeste 0 -- -- 87
2017-09-08 00:00:00 9.5 4 Noroeste 7 Noroeste 0 -- -- 92
2017-09-07 23:00:00 10.5 4 Noroeste 5 Noroeste 0 -- -- 93
2017-09-07 22:00:00 11.4 5 Noroeste 8 Noroeste 0 -- -- 89
2017-09-07 21:00:00 14.1 3 Noroeste 8 Oeste 0 -- -- 79
2017-09-07 20:00:00 17.4 4 Oeste 9 Sudoeste 0 -- -- 63
2017-09-07 19:00:00 19.7 3 Oeste 15 Oeste 0 -- -- 48
2017-09-07 18:00:00 20.7 7 Oeste 18 Noroeste 0 -- -- 39
2017-09-07 17:00:00 21.8 6 Oeste 21 Sur 0 -- -- 32
2017-09-07 16:00:00 22.7 7 Oeste 19 Oeste 0 -- -- 27
2017-09-07 15:00:00 22.6 5 Sudeste 15 Sur 0 -- -- 32
2017-09-07 14:00:00 21.3 4 Noroeste 13 Sudeste 0 -- -- 30
2017-09-07 13:00:00 19.6 3 Sudeste 11 Sudeste 0 -- -- 27
2017-09-07 12:00:00 18.3 3 Sur 10 Sur 0 -- -- 32
2017-09-07 11:00:00 16.2 2 Sudeste 5 Oeste 0 -- -- 39
2017-09-07 10:00:00 12.6 0 Calma 8 Oeste 0 -- -- 50
2017-09-07 09:00:00 9.6 4 Noroeste 9 Noroeste 0 -- -- 60
2017-09-07 08:00:00 8.5 6 Noroeste 9 Noroeste 0 -- -- 48
2017-09-07 07:00:00 8.6 5 Noroeste 10 Noroeste 0 -- -- 47
2017-09-07 06:00:00 9 4 Noroeste 9 Noroeste 0 -- -- 47
2017-09-07 05:00:00 9.2 5 Noroeste 9 Oeste 0 -- -- 45
2017-09-07 04:00:00 9.2 5 Noroeste 13 Nordeste 0 -- -- 45
2017-09-07 03:00:00 9 3 Noroeste 9 Noroeste 0 -- -- 42
2017-09-07 02:00:00 8.5 0 Calma 9 Noroeste 0 -- -- 44
2017-09-07 01:00:00 7.1 5 Noroeste 10 Noroeste 0 -- -- 55
2017-09-07 00:00:00 9.2 2 Noroeste 6 Noroeste 0 -- -- 93
2017-09-06 23:00:00 10.7 0 Calma 5 Noroeste 0 -- -- 95
2017-09-06 22:00:00 9.2 3 Oeste 5 Noroeste 0 -- -- 91
2017-09-06 21:00:00 11.9 2 Noroeste 5 Oeste 0 -- -- 89
2017-09-06 20:00:00 14.7 2 Oeste 7 Noroeste 0 -- -- 81
2017-09-06 19:00:00 16.9 3 Norte 12 Sur 0 -- -- 73
2017-09-06 18:00:00 18.5 4 Sudeste 13 Este 0 -- -- 67
2017-09-06 17:00:00 19.5 5 Sur 16 Sur 0 -- -- 63
2017-09-06 16:00:00 19.7 5 Sur 19 Noroeste 0 -- -- 61
2017-09-06 15:00:00 19.2 6 Sur 16 Sur 0 -- -- 64
2017-09-06 14:00:00 18.2 4 Oeste 14 Sur 0 -- -- 67
2017-09-06 13:00:00 16.4 4 Sudeste 13 Sudeste 0 -- -- 73
2017-09-06 12:00:00 14.5 5 Noroeste 12 Oeste 0 -- -- 79
2017-09-06 11:00:00 13.7 5 Sudeste 12 Sur 0 -- -- 84
2017-09-06 10:00:00 11.7 4 Sur 23 Este 0 -- -- 88
2017-09-06 09:00:00 11.2 13 Este 21 Este 0 -- -- 86
2017-09-06 08:00:00 7.5 2 Norte 5 Noroeste 0 -- -- 98
2017-09-06 07:00:00 8.3 2 Noroeste 5 Sur 0 -- -- 96
2017-09-06 06:00:00 9.9 4 Oeste 10 Oeste 0 -- -- 95
2017-09-06 05:00:00 10.6 2 Sur 13 Norte 0 -- -- 92
2017-09-06 04:00:00 11.8 4 Norte 15 Nordeste 0 -- -- 87
2017-09-06 03:00:00 12.3 6 Nordeste 17 Nordeste 0 -- -- 91
2017-09-06 02:00:00 13 2 Sur 10 Sur 0 -- -- 95
2017-09-06 01:00:00 13.4 4 Sur 10 Sudeste 0 -- -- 93
2017-09-06 00:00:00 13.5 4 Sur 6 Sur 0 -- -- 95
2017-09-05 23:00:00 13.6 0 Calma 8 Oeste 0 -- -- 93
2017-09-05 22:00:00 14.1 0 Calma 6 Este 0 -- -- 89
2017-09-05 21:00:00 15.5 5 Sudoeste 24 Noroeste 0 -- -- 82
2017-09-05 20:00:00 18.2 9 Norte 22 Noroeste 0 -- -- 72
2017-09-05 19:00:00 20.2 10 Noroeste 22 Noroeste 0 -- -- 59
2017-09-05 18:00:00 21.5 9 Oeste 25 Noroeste 0 -- -- 52
2017-09-05 17:00:00 21.6 13 Noroeste 25 Noroeste 0 -- -- 48
2017-09-05 16:00:00 22.3 8 Oeste 19 Noroeste 0 -- -- 46
2017-09-05 15:00:00 23.6 5 Este 19 Sur 0 -- -- 42
2017-09-05 14:00:00 23.5 5 Sudeste 17 Sudeste 0 -- -- 40
2017-09-05 13:00:00 21.5 6 Sudeste 14 Este 0 -- -- 42
2017-09-05 12:00:00 19.3 4 Norte 11 Noroeste 0 -- -- 58
2017-09-05 11:00:00 19.1 4 Sudeste 9 Sur 0 -- -- 61
2017-09-05 10:00:00 16 2 Sur 5 Este 0 -- -- 84
2017-09-05 09:00:00 11.1 2 Noroeste 7 Noroeste 0 -- -- 95
2017-09-05 08:00:00 10.2 6 Noroeste 9 Noroeste 0.2 -- -- 98
2017-09-05 07:00:00 10.5 5 Noroeste 9 Noroeste 0 -- -- 98
2017-09-05 06:00:00 11 3 Norte 8 Noroeste 0 -- -- 99
2017-09-05 05:00:00 11.4 4 Noroeste 8 Noroeste 0 -- -- 98
2017-09-05 04:00:00 11.2 4 Noroeste 5 Noroeste 0 -- -- 98
2017-09-05 03:00:00 12.3 3 Norte 6 Noroeste 0 -- -- 99
2017-09-05 02:00:00 11.4 3 Noroeste 6 Oeste 0 -- -- 96
2017-09-05 01:00:00 12.2 3 Sudoeste 8 Noroeste 0 -- -- 97
2017-09-05 00:00:00 12.2 3 Oeste 7 Noroeste 0 -- -- 97
2017-09-04 23:00:00 12.4 3 Noroeste 6 Noroeste 0 -- -- 96
2017-09-04 22:00:00 13.1 4 Noroeste 6 Oeste 0 -- -- 94
2017-09-04 21:00:00 14.8 3 Noroeste 5 Oeste 0 -- -- 88
2017-09-04 20:00:00 18.1 3 Noroeste 6 Nordeste 0 -- -- 75
2017-09-04 19:00:00 20 4 Este 12 Sudeste 0 -- -- 66
2017-09-04 18:00:00 20.6 4 Noroeste 13 Sur 0 -- -- 64
2017-09-04 17:00:00 20.8 6 Sudeste 18 Sudeste 0 -- -- 65
2017-09-04 16:00:00 20.8 4 Este 19 Sudeste 0 -- -- 67
2017-09-04 15:00:00 18.8 4 Sur 13 Sur 0 -- -- 71
2017-09-04 14:00:00 17.9 3 Sudeste 14 Sudeste 0 -- -- 78
2017-09-04 13:00:00 16.1 3 Norte 14 Sur 0 -- -- 81
2017-09-04 12:00:00 14.3 3 Nordeste 10 Este 0 -- -- 95
2017-09-04 11:00:00 12.9 2 Norte 7 Sur 0 -- -- 99
2017-09-04 10:00:00 12.3 0 Calma 7 Noroeste 0 -- -- 100
2017-09-04 09:00:00 11.9 0 Calma 5 Noroeste 0 -- -- 100
2017-09-04 08:00:00 11.9 0 Calma 9 Oeste 0.2 -- -- 100
2017-09-04 07:00:00 12.1 2 Noroeste 13 Norte 0.2 -- -- 99
2017-09-04 06:00:00 12.3 3 Noroeste 10 Noroeste 0.4 -- -- 99
2017-09-04 05:00:00 12.5 3 Norte 7 Noroeste 0.2 -- -- 99
2017-09-04 04:00:00 12.4 3 Noroeste 10 Noroeste 0.4 -- -- 99
2017-09-04 03:00:00 12.2 3 Norte 8 Noroeste 0 -- -- 97
2017-09-04 02:00:00 12.4 4 Norte 13 Sur 0.2 -- -- 97
2017-09-04 01:00:00 12.9 6 Noroeste 21 Oeste 0.2 -- -- 88
2017-09-04 00:00:00 13.6 3 Norte 23 Oeste 0 -- -- 96
2017-09-03 23:00:00 13.9 6 Oeste 18 Noroeste 0.2 -- -- 95
2017-09-03 22:00:00 14.4 2 Norte 6 Oeste 1 -- -- 95
2017-09-03 21:00:00 14.8 3 Noroeste 7 Nordeste 0 -- -- 90
2017-09-03 20:00:00 17.3 4 Nordeste 18 Noroeste 0 -- -- 72
2017-09-03 19:00:00 19.1 7 Noroeste 24 Noroeste 0 -- -- 54
2017-09-03 18:00:00 20 7 Noroeste 27 Noroeste 0 -- -- 55
2017-09-03 17:00:00 22.4 5 Noroeste 15 Sur 0 -- -- 50
2017-09-03 16:00:00 20.4 4 Noroeste 12 Noroeste 0 -- -- 54
2017-09-03 15:00:00 20.5 4 Este 14 Sudoeste 0 -- -- 53
2017-09-03 14:00:00 21.9 5 Nordeste 14 Nordeste 0 -- -- 47
2017-09-03 13:00:00 20.5 5 Noroeste 16 Sur 0 -- -- 54
2017-09-03 12:00:00 20.3 5 Sudeste 15 Sur 0 -- -- 61
2017-09-03 11:00:00 18.1 5 Sudeste 14 Sur 0 -- -- 65
2017-09-03 10:00:00 14.5 2 Noroeste 6 Oeste 0 -- -- 67
2017-09-03 09:00:00 11.2 3 Noroeste 7 Noroeste 0 -- -- 73
2017-09-03 08:00:00 9.6 5 Noroeste 8 Noroeste 0 -- -- 63
2017-09-03 07:00:00 10 6 Noroeste 9 Noroeste 0 -- -- 66
2017-09-03 06:00:00 9.9 6 Noroeste 8 Noroeste 0 -- -- 66
2017-09-03 05:00:00 10.3 3 Noroeste 5 Noroeste 0 -- -- 65
2017-09-03 04:00:00 12.1 3 Noroeste 5 Noroeste 0 -- -- 78
2017-09-03 03:00:00 12.6 3 Noroeste 6 Noroeste 0 -- -- 75
2017-09-03 02:00:00 13.2 4 Noroeste 10 Noroeste 0 -- -- 70
2017-09-03 01:00:00 12.8 4 Noroeste 8 Noroeste 0 -- -- 72
2017-09-03 00:00:00 12.7 4 Noroeste 8 Oeste 0 -- -- 71
2017-09-02 23:00:00 12.5 4 Noroeste 7 Noroeste 0 -- -- 71
2017-09-02 22:00:00 13.7 3 Noroeste 10 Noroeste 0 -- -- 68
2017-09-02 21:00:00 16.2 4 Noroeste 10 Oeste 0 -- -- 58
2017-09-02 20:00:00 18.3 3 Noroeste 11 Oeste 0 -- -- 48
2017-09-02 19:00:00 20.1 5 Oeste 13 Oeste 0 -- -- 46
2017-09-02 18:00:00 22.6 3 Sudeste 15 Sudeste 0 -- -- 34
2017-09-02 17:00:00 23.1 5 Sudeste 19 Sur 0 -- -- 33
2017-09-02 16:00:00 22.6 6 Sur 15 Sudeste 0 -- -- 29
2017-09-02 15:00:00 21.9 5 Sudeste 17 Sur 0 -- -- 33
2017-09-02 14:00:00 20.1 3 Norte 15 Sur 0 -- -- 33
2017-09-02 13:00:00 18.2 4 Noroeste 11 Sur 0 -- -- 37
2017-09-02 12:00:00 16.8 4 Oeste 10 Noroeste 0 -- -- 37
2017-09-02 11:00:00 15.3 4 Sudeste 6 Sur 0 -- -- 43
2017-09-02 10:00:00 11.9 0 Calma 4 Sudeste 0 -- -- 50
2017-09-02 09:00:00 6.2 0 Calma 8 Noroeste 0 -- -- 61
2017-09-02 08:00:00 4.2 3 Noroeste 10 Norte 0 -- -- 55
2017-09-02 07:00:00 3 4 Noroeste 8 Noroeste 0 -- -- 65
2017-09-02 06:00:00 3.3 2 Noroeste 11 Nordeste 0 -- -- 61
2017-09-02 05:00:00 7.3 15 Este 28 Este 0 -- -- 69
2017-09-02 04:00:00 8.5 14 Nordeste 27 Este 0 -- -- 58
2017-09-02 03:00:00 7.8 17 Este 28 Este 0 -- -- 78
2017-09-02 02:00:00 7.8 14 Nordeste 23 Este 0 -- -- 79
2017-09-02 01:00:00 7.4 10 Nordeste 16 Este 0 -- -- 84
2017-09-02 00:00:00 8 10 Este 17 Este 0 -- -- 82
2017-09-01 23:00:00 8 4 Este 17 Norte 0 -- -- 86
2017-09-01 22:00:00 9.2 9 Norte 28 Norte 0 -- -- 81
2017-09-01 21:00:00 9.9 18 Norte 29 Norte 0 -- -- 77
2017-09-01 20:00:00 10.9 16 Norte 28 Norte 0 -- -- 77
2017-09-01 19:00:00 11.9 18 Norte 30 Nordeste 0 -- -- 74
2017-09-01 18:00:00 13.7 16 Nordeste 30 Noroeste 0 -- -- 67
2017-09-01 17:00:00 14 17 Norte 28 Nordeste 0 -- -- 63
2017-09-01 16:00:00 13.8 8 Nordeste 26 Oeste 0 -- -- 58
2017-09-01 15:00:00 13.9 10 Nordeste 24 Este 0 -- -- 52
2017-09-01 14:00:00 13.5 11 Nordeste 26 Nordeste 0 -- -- 57
2017-09-01 13:00:00 12.5 17 Nordeste 30 Noroeste 0 -- -- 64
2017-09-01 12:00:00 12 11 Nordeste 29 Nordeste 0 -- -- 65
2017-09-01 11:00:00 10.9 6 Oeste 17 Oeste 0 -- -- 71
2017-09-01 10:00:00 8.4 0 Calma 9 Noroeste 0 -- -- 100
2017-09-01 09:00:00 7.8 0 Calma 5 Sur 0 -- -- 100
2017-09-01 08:00:00 7.9 0 Calma 5 Sudoeste 0 -- -- 100
2017-09-01 07:00:00 8 0 Calma 2 Sur 0 -- -- 100
2017-09-01 06:00:00 8.1 0 Calma 4 Sur 0 -- -- 100
2017-09-01 05:00:00 8.3 2 Sur 10 Norte 0 -- -- 99
2017-09-01 04:00:00 8.3 4 Este 8 Nordeste 0 -- -- 100
2017-09-01 03:00:00 8.3 0 Calma 3 Sur 0 -- -- 100
2017-09-01 02:00:00 8.4 0 Calma 3 Sur 0 -- -- 99
2017-09-01 01:00:00 8.5 0 Calma 5 Sur 0 -- -- 99
2017-09-01 00:00:00 8.7 3 Sur 7 Sudeste 0 -- -- 99
2017-08-31 23:00:00 9.2 0 Calma 10 Sudoeste 0 -- -- 98
2017-08-31 22:00:00 9.7 4 Sudoeste 22 Norte 0 -- -- 94
2017-08-31 21:00:00 9.7 10 Norte 22 Norte 0 -- -- 96
2017-08-31 20:00:00 10.5 13 Norte 22 Nordeste 0 -- -- 92
2017-08-31 19:00:00 12 13 Norte 30 Norte 0 -- -- 85
2017-08-31 18:00:00 13.2 12 Noroeste 28 Noroeste 0 -- -- 79
2017-08-31 17:00:00 13.7 13 Noroeste 22 Noroeste 0 -- -- 76
2017-08-31 16:00:00 14.2 11 Noroeste 26 Oeste 0 -- -- 74
2017-08-31 15:00:00 14.7 9 Noroeste 21 Noroeste 0 -- -- 71
2017-08-31 14:00:00 16.6 7 Sudeste 18 Sudeste 0 -- -- 73
2017-08-31 13:00:00 15.4 7 Sudeste 15 Sur 0 -- -- 75
2017-08-31 12:00:00 13.3 6 Sur 17 Sur 0 -- -- 85
2017-08-31 11:00:00 11.6 7 Sudeste 15 Sudeste 0 -- -- 90
2017-08-31 10:00:00 10 6 Este 14 Este 0 -- -- 94
2017-08-31 09:00:00 7.4 0 Calma 6 Sudeste 0 -- -- 100
2017-08-31 08:00:00 5.3 2 Noroeste 5 Noroeste 0.2 -- -- 100
2017-08-31 07:00:00 6.4 2 Noroeste 5 Oeste 0 -- -- 100
2017-08-31 06:00:00 7.3 2 Sudoeste 13 Norte 0 -- -- 100
2017-08-31 05:00:00 8.1 0 Calma 4 Noroeste 0 -- -- 100
2017-08-31 04:00:00 8 0 Calma 4 Oeste 0 -- -- 100
2017-08-31 03:00:00 8.9 0 Calma 4 Este 0 -- -- 100
2017-08-31 02:00:00 9.1 2 Oeste 8 Nordeste 0.2 -- -- 100
2017-08-31 01:00:00 9.3 0 Calma 4 Sur 0.2 -- -- 100
2017-08-31 00:00:00 9.3 3 Sur 9 Sudoeste 0 -- -- 100
2017-08-30 23:00:00 9.7 2 Sur 9 Oeste 0 -- -- 100
2017-08-30 22:00:00 10 3 Sur 14 Sudeste 0 -- -- 99
2017-08-30 21:00:00 10.4 4 Noroeste 17 Noroeste 0.2 -- -- 97
2017-08-30 20:00:00 11.1 3 Sur 12 Sur 0 -- -- 100
2017-08-30 19:00:00 11.7 0 Calma 12 Oeste 0 -- -- 99
2017-08-30 18:00:00 12.4 3 Sur 14 Este 0 -- -- 99
2017-08-30 17:00:00 12.6 5 Sur 14 Noroeste 0.4 -- -- 100
2017-08-30 16:00:00 12.6 4 Noroeste 11 Noroeste 2 -- -- 99
2017-08-30 15:00:00 13.1 4 Sudeste 10 Oeste 0.4 -- -- 100
2017-08-30 14:00:00 13 2 Nordeste 15 Norte 1.8 -- -- 99
2017-08-30 13:00:00 13.6 2 Sur 6 Noroeste 0.4 -- -- 96
2017-08-30 12:00:00 13.4 4 Sur 8 Sudeste 0 -- -- 96
2017-08-30 11:00:00 13.2 3 Oeste 8 Sur 0 -- -- 96
2017-08-30 10:00:00 13.1 3 Sur 9 Sur 0 -- -- 95
2017-08-30 09:00:00 11.9 0 Calma 7 Noroeste 0 -- -- 100
2017-08-30 08:00:00 10.4 2 Oeste 15 Nordeste 0 -- -- 97
2017-08-30 07:00:00 10 4 Norte 14 Nordeste 0 -- -- 99
2017-08-30 06:00:00 10.6 3 Norte 8 Noroeste 0 -- -- 99
2017-08-30 05:00:00 11.8 0 Calma 5 Sur 0 -- -- 99
2017-08-30 04:00:00 12 3 Sudoeste 26 Este 0 -- -- 98
2017-08-30 03:00:00 12 7 Nordeste 23 Este 0 -- -- 99
2017-08-30 02:00:00 12.3 7 Nordeste 14 Nordeste 0 -- -- 98
2017-08-30 01:00:00 12.3 2 Noroeste 5 Noroeste 0 -- -- 98
2017-08-30 00:00:00 13.2 0 Calma 4 Nordeste 0 -- -- 99
2017-08-29 23:00:00 12.8 0 Calma 4 Noroeste 0 -- -- 98
2017-08-29 22:00:00 12.4 3 Noroeste 9 Norte 0 -- -- 97
2017-08-29 21:00:00 12.1 3 Noroeste 7 Noroeste 0 -- -- 97
2017-08-29 20:00:00 12.7 0 Calma 27 Este 2.6 -- -- 93
2017-08-29 19:00:00 18 4 Oeste 15 Sudoeste 0 -- -- 77
2017-08-29 18:00:00 17.4 12 Norte 23 Noroeste 0 -- -- 73
2017-08-29 17:00:00 19.3 4 Nordeste 19 Oeste 0 -- -- 69
2017-08-29 16:00:00 17.9 7 Noroeste 20 Noroeste 0 -- -- 74
2017-08-29 15:00:00 18.9 3 Norte 10 Oeste 0 -- -- 70
2017-08-29 14:00:00 17.8 3 Noroeste 9 Oeste 0 -- -- 73
2017-08-29 13:00:00 18.2 4 Noroeste 13 Sur 0 -- -- 74
2017-08-29 12:00:00 18.9 4 Sudeste 14 Este 0 -- -- 67
2017-08-29 11:00:00 17 7 Este 13 Sudeste 0 -- -- 72
2017-08-29 10:00:00 14.2 11 Nordeste 22 Este 0 -- -- 82
2017-08-29 09:00:00 13.2 12 Nordeste 16 Este 0 -- -- 86
2017-08-29 08:00:00 11.8 0 Calma 4 Norte 0 -- -- 95
2017-08-29 07:00:00 11.8 0 Calma 6 Norte 0 -- -- 94
2017-08-29 06:00:00 12.6 4 Noroeste 12 Nordeste 0 -- -- 87
2017-08-29 05:00:00 13.7 6 Nordeste 20 Este 0 -- -- 81
2017-08-29 04:00:00 13.9 8 Este 18 Nordeste 0 -- -- 81
2017-08-29 03:00:00 14.1 9 Nordeste 18 Este 0 -- -- 80
2017-08-29 02:00:00 14.1 6 Nordeste 17 Este 0 -- -- 81
2017-08-29 01:00:00 14.3 11 Este 17 Este 0 -- -- 79
2017-08-29 00:00:00 14.3 12 Nordeste 28 Este 0 -- -- 84
2017-08-28 23:00:00 14.1 11 Nordeste 30 Este 0 -- -- 89
2017-08-28 22:00:00 14.6 15 Nordeste 20 Este 0 -- -- 87
2017-08-28 21:00:00 13.2 4 Este 10 Este 0.4 -- -- 95
2017-08-28 20:00:00 12.8 3 Nordeste 14 Noroeste 2.8 -- -- 92
2017-08-28 19:00:00 15.7 6 Noroeste 21 Este 0.2 -- -- 75
2017-08-28 18:00:00 19.2 19 Este 32 Este 0 -- -- 54
2017-08-28 17:00:00 21.8 9 Sudeste 22 Este 0 -- -- 48
2017-08-28 16:00:00 21.8 9 Sur 26 Sudeste 0 -- -- 44
2017-08-28 15:00:00 21.2 12 Sudeste 35 Este 0 -- -- 49
2017-08-28 14:00:00 20.5 13 Este 27 Este 0 -- -- 58
2017-08-28 13:00:00 18.7 13 Este 27 Este 0 -- -- 68
2017-08-28 12:00:00 17.9 12 Este 24 Este 0 -- -- 70
2017-08-28 11:00:00 17.5 13 Este 25 Este 0 -- -- 69
2017-08-28 10:00:00 15.8 14 Este 35 Este 0 -- -- 75
2017-08-28 09:00:00 14.3 15 Nordeste 27 Nordeste 0 -- -- 80
2017-08-28 08:00:00 13.2 15 Este 25 Este 0 -- -- 84
2017-08-28 07:00:00 14 14 Nordeste 27 Este 0 -- -- 82
2017-08-28 06:00:00 13.5 15 Nordeste 26 Nordeste 0 -- -- 86
2017-08-28 05:00:00 13.1 14 Nordeste 30 Este 0 -- -- 90
2017-08-28 04:00:00 13.1 18 Nordeste 27 Nordeste 0 -- -- 89
2017-08-28 03:00:00 13 14 Nordeste 31 Este 0 -- -- 89
2017-08-28 02:00:00 12.6 16 Nordeste 31 Este 0 -- -- 86
2017-08-28 01:00:00 12 18 Nordeste 27 Este 0 -- -- 89
2017-08-28 00:00:00 11.7 17 Nordeste 25 Nordeste 0 -- -- 92
2017-08-27 23:00:00 11.5 18 Este 29 Este 1.2 -- -- 95
2017-08-27 22:00:00 12.3 15 Este 24 Este 1 -- -- 93
2017-08-27 21:00:00 12.9 14 Nordeste 30 Este 1.6 -- -- 90
2017-08-27 20:00:00 15.2 20 Nordeste 28 Nordeste 0.4 -- -- 76
2017-08-27 19:00:00 17.1 16 Este 30 Este 0.2 -- -- 72
2017-08-27 18:00:00 16.4 6 Noroeste 27 Sur 0 -- -- 79
2017-08-27 17:00:00 18.2 7 Este 32 Este 0.2 -- -- 71
2017-08-27 16:00:00 19.8 17 Este 35 Este 0 -- -- 58
2017-08-27 15:00:00 20.4 15 Este 34 Este 0 -- -- 55
2017-08-27 14:00:00 20.2 9 Sudeste 28 Este 0 -- -- 57
2017-08-27 13:00:00 19.2 12 Este 24 Este 0 -- -- 62
2017-08-27 12:00:00 18.2 14 Este 35 Este 0 -- -- 63
2017-08-27 11:00:00 18.2 15 Este 32 Este 0 -- -- 61
2017-08-27 10:00:00 17.4 4 Nordeste 22 Este 0 -- -- 61
2017-08-27 09:00:00 16.5 8 Este 28 Este 0 -- -- 60
2017-08-27 08:00:00 17.5 9 Este 28 Nordeste 0 -- -- 55
2017-08-27 07:00:00 16.3 21 Nordeste 34 Este 0 -- -- 62
2017-08-27 06:00:00 16.1 16 Nordeste 32 Este 0 -- -- 63
2017-08-27 05:00:00 15.6 14 Nordeste 23 Nordeste 0 -- -- 63
2017-08-27 04:00:00 15.4 13 Nordeste 25 Este 0 -- -- 65
2017-08-27 03:00:00 14.7 16 Este 24 Este 0 -- -- 73
2017-08-27 02:00:00 14.4 4 Noroeste 22 Nordeste 0.2 -- -- 80
2017-08-27 01:00:00 14.9 14 Nordeste 22 Nordeste 0 -- -- 73
2017-08-27 00:00:00 14.3 12 Nordeste 22 Nordeste 0.4 -- -- 80
2017-08-26 23:00:00 15.6 15 Nordeste 26 Este 0 -- -- 73
2017-08-26 22:00:00 17.7 12 Este 31 Este 0.4 -- -- 64
2017-08-26 21:00:00 15.8 0 Calma 6 Nordeste 0 -- -- 78
2017-08-26 20:00:00 17 0 Calma 7 Norte 0 -- -- 75
2017-08-26 19:00:00 17.9 3 Oeste 15 Sudeste 0 -- -- 72
2017-08-26 18:00:00 20.5 5 Sudoeste 20 Sur 0 -- -- 61
2017-08-26 17:00:00 22.4 5 Noroeste 31 Oeste 0 -- -- 42
2017-08-26 16:00:00 22.4 7 Sur 28 Nordeste 0 -- -- 41
2017-08-26 15:00:00 21.9 8 Este 27 Este 0 -- -- 46
2017-08-26 14:00:00 20.9 5 Sudeste 22 Nordeste 0 -- -- 47
2017-08-26 13:00:00 21.2 8 Sudeste 23 Oeste 0 -- -- 48
2017-08-26 12:00:00 21.4 8 Sudeste 19 Sudeste 0 -- -- 49
2017-08-26 11:00:00 21.4 6 Sur 18 Sudeste 0 -- -- 50
2017-08-26 10:00:00 18.4 5 Este 9 Sur 0 -- -- 59
2017-08-26 09:00:00 15 3 Oeste 8 Oeste 0 -- -- 71
2017-08-26 08:00:00 12.3 3 Norte 8 Nordeste 0 -- -- 81
2017-08-26 07:00:00 12.9 2 Noroeste 8 Norte 0 -- -- 79
2017-08-26 06:00:00 11.9 3 Noroeste 8 Noroeste 0 -- -- 84
2017-08-26 05:00:00 12.6 3 Oeste 8 Noroeste 0 -- -- 82
2017-08-26 04:00:00 12.2 3 Oeste 8 Noroeste 0 -- -- 84
2017-08-26 03:00:00 12 3 Oeste 8 Noroeste 0 -- -- 89
2017-08-26 02:00:00 11.9 4 Noroeste 6 Oeste 0 -- -- 90
2017-08-26 01:00:00 12.9 3 Noroeste 6 Oeste 0 -- -- 92
2017-08-26 00:00:00 13.5 3 Noroeste 5 Oeste 0 -- -- 90